Monson, ME

03:56 AM EDT on Oktober 22, 2014 (GMT -0400)
Greeley's Landing | Change Station
CLOSE
Current Station
Personal Weather Stations
Location: Dover-Foxcroft, ME
Elevation: 315 ft
Nearby Weather Stations
Active Advisory: Areal Flood Watch

Elev 315 ft 45.25 °N, 69.24 °W | Updated 13 minutes ago

Toe getrek
Toe getrek
41.5 °F
Feels Like 42 °F
N
1.1
Wind Veranderlik Wind from NNO

Vandag
High -- | Low -- °F
--% Chance of Precip.
Yesterday
High -- | Low -- °F
Precip. -- in
7:03 AM 5:40 PM
Waning Crescent, 3% visible
Druk 30.25 in
Sigbaarheid 10.0 myle
Wolke Verspreide Wolke 2700 ft
Toe getrek 3500 ft
Wind afkoel 42 °F
Dou-punt 40 °F
Humiditeit 96%
Rainfall 0.00 in
Snow Depth Not available.
UV 0 out of 12
Pollen .10 out of 12
Air Quality Not available.
Flu Activity Sporadic
SPECI KMLT 220729Z AUTO 04006KT 10SM SCT027 OVC035 07/01 A3025 RMK AO2 T00670011

More Conditions Fewer Conditions

Druk 30.25 in
Sigbaarheid 10.0 myle
Wolke Verspreide Wolke 2700 ft
Toe getrek 3500 ft
Wind afkoel 42 °F
Dou-punt 40 °F
Humiditeit 96%
Rainfall 0.00 in
Snow Depth Not available.
UV 0 out of 12
Pollen .10 out of 12
Air Quality Not available.
Flu Activity Sporadic
SPECI KMLT 220729Z AUTO 04006KT 10SM SCT027 OVC035 07/01 A3025 RMK AO2 T00670011

More Conditions Fewer Conditions

10-Day Weather Forecast

Almanac

Astronomy

Oct. 22, 2014 Rise Set
Ware Tyd 7:03 AM EDT 5:40 PM EDT
Civil Twilight 6:33 AM EDT 6:10 PM EDT
Nautical Twilight 5:58 AM EDT 6:45 PM EDT
Astronomical Twilight 5:24 AM EDT 7:19 PM EDT
Maan 5:37 AM EDT 5:08 PM EDT
Length Of Visible Light 11h 37m
Length of Day
10h 37m
Tomorrow will be 2m 59s shorter.
Waning Crescent, 3% of the Moon is Illuminated
Vandag
Waning Crescent
Oct 23
New
Oct 30
Eerste Kwartier
Nov 6
Vol Maan
Nov 14
Laaste kwarter

Today's Extremes

State Highs State Lows

Community

WunderPhotos

Upload Photos

1,763,889 photos uploaded!

Nearby

Air Quality

  Air Quality AQ Index Pollutant
Woensdag Good
OZONE
Woensdag Good
PM2.5
Donderdag Good
OZONE
Donderdag Good
PM2.5
Vrydag Good
OZONE
Vrydag Good
PM2.5
Saterdag Good
OZONE
Saterdag Good
PM2.5

Snow Depth

Station Depth Elevation
No new snow has been reported.

Earthquake Activity

Stad Distance Mag. Time & Date
No recent earthquake activity has been reported nearby.
Minimum magnitude displayed is 2.5.

Coastal Water Temperatures

Plek Temperatuur
No Stations Reporting

Nearby Weather Stations